createdAt,value
2023-02-27T00:00:06.739Z,8.32
2023-02-27T00:01:28.481Z,7.77
2023-02-27T00:02:51.276Z,7.82
2023-02-27T00:04:13.878Z,8.12
2023-02-27T00:05:35.409Z,9.21
2023-02-27T00:06:57.821Z,8.64
2023-02-27T00:08:19.284Z,10.82
2023-02-27T00:09:40.605Z,10.73
2023-02-27T00:11:01.824Z,9.17
2023-02-27T00:12:23.405Z,8.27
2023-02-27T00:13:44.931Z,8.56
2023-02-27T00:15:11.035Z,7.42
2023-02-27T00:16:33.404Z,8.21
2023-02-27T00:17:54.785Z,6.89
2023-02-27T00:19:16.737Z,8.76
2023-02-27T00:20:38.147Z,8.08
2023-02-27T00:21:59.859Z,8.07
2023-02-27T00:23:21.273Z,8.37
2023-02-27T00:24:44.867Z,9.89
2023-02-27T00:26:06.240Z,10.05
2023-02-27T00:27:27.503Z,10.03
2023-02-27T00:28:48.916Z,10.07
2023-02-27T00:30:12.146Z,11.21
2023-02-27T00:31:34.004Z,11.33
2023-02-27T00:32:55.508Z,9.09
2023-02-27T00:34:16.963Z,8.48
2023-02-27T00:35:38.026Z,9.36
2023-02-27T00:36:59.042Z,8.33
2023-02-27T00:38:20.731Z,7.04
2023-02-27T00:39:42.129Z,7.23
2023-02-27T00:41:03.424Z,9.81
2023-02-27T00:42:24.872Z,10.18
2023-02-27T00:43:46.273Z,8.74
2023-02-27T00:45:08.393Z,8.07
2023-02-27T00:46:29.777Z,6.33
2023-02-27T00:47:51.121Z,6.98
2023-02-27T00:49:12.569Z,9.24
2023-02-27T00:50:34.146Z,8.14
2023-02-27T00:51:55.508Z,8.24
2023-02-27T00:53:17.690Z,9.92
2023-02-27T00:54:39.392Z,9.18
2023-02-27T00:56:00.699Z,8.61
2023-02-27T00:57:23.581Z,9.05
2023-02-27T00:58:46.087Z,9.37
2023-02-27T01:00:08.319Z,8.57
2023-02-27T01:01:29.803Z,8.71
2023-02-27T01:02:51.132Z,6.97
2023-02-27T01:04:12.779Z,7.86
2023-02-27T01:05:33.912Z,8.88
2023-02-27T01:06:55.385Z,7.96
2023-02-27T01:08:16.861Z,8.21
2023-02-27T01:09:38.578Z,7.47
2023-02-27T01:10:59.924Z,6.89
2023-02-27T01:12:21.468Z,7.18
2023-02-27T01:13:44.340Z,7.49
2023-02-27T01:15:06.625Z,6.29
2023-02-27T01:16:28.016Z,7.79
2023-02-27T01:17:49.204Z,6.51
2023-02-27T01:19:10.313Z,6.03
2023-02-27T01:20:32.113Z,6.72
2023-02-27T01:21:53.290Z,7.29
2023-02-27T01:23:14.519Z,7.02
2023-02-27T01:24:36.009Z,8.22
2023-02-27T01:25:57.490Z,6.75
2023-02-27T01:27:19.305Z,7.34
2023-02-27T01:28:41.470Z,7.02
2023-02-27T01:30:03.031Z,7.12
2023-02-27T01:31:24.265Z,6.12
2023-02-27T01:32:45.982Z,7.44
2023-02-27T01:34:07.650Z,7.64
2023-02-27T01:35:29.132Z,6.46
2023-02-27T01:36:50.521Z,5.69
2023-02-27T01:38:13.115Z,7.74
2023-02-27T01:39:34.370Z,6.83
2023-02-27T01:40:55.594Z,7.51
2023-02-27T01:42:22.282Z,6.27
2023-02-27T01:44:01.397Z,8.71
2023-02-27T01:45:33.910Z,8.30
2023-02-27T01:46:55.217Z,7.56
2023-02-27T01:48:33.957Z,8.89
2023-02-27T01:49:55.704Z,8.14
2023-02-27T01:51:18.538Z,8.04
2023-02-27T01:52:39.927Z,8.93
2023-02-27T01:54:01.218Z,8.94
2023-02-27T01:55:22.898Z,9.43
2023-02-27T01:56:44.528Z,8.17
2023-02-27T01:58:07.105Z,8.32
2023-02-27T02:00:49.935Z,7.96
2023-02-27T02:02:17.274Z,7.03
2023-02-27T02:03:50.577Z,7.61
2023-02-27T02:05:12.174Z,7.31
2023-02-27T02:06:35.171Z,7.75
2023-02-27T02:07:57.175Z,7.02
2023-02-27T02:09:18.817Z,8.26
2023-02-27T02:10:40.410Z,6.64
2023-02-27T02:12:01.711Z,7.85
2023-02-27T02:13:26.382Z,8.01
2023-02-27T02:14:47.996Z,9.12
2023-02-27T02:16:28.447Z,8.22
2023-02-27T02:21:37.678Z,7.50
2023-02-27T02:23:05.899Z,7.97
2023-02-27T02:24:50.093Z,8.51
2023-02-27T02:26:23.386Z,6.46
2023-02-27T02:27:59.564Z,8.57
2023-02-27T02:29:41.305Z,6.41
2023-02-27T02:31:22.128Z,7.53
2023-02-27T02:32:47.176Z,8.26
2023-02-27T02:34:28.579Z,8.94
2023-02-27T02:36:27.014Z,8.20
2023-02-27T02:37:57.880Z,8.03
2023-02-27T02:40:45.931Z,8.45
2023-02-27T02:42:12.259Z,8.68
2023-02-27T02:44:04.359Z,10.42
2023-02-27T03:00:24.656Z,9.37
2023-02-27T03:01:52.260Z,9.44
2023-02-27T03:03:20.678Z,12.26
2023-02-27T03:04:51.237Z,10.51
2023-02-27T03:06:16.356Z,11.31
2023-02-27T03:08:57.666Z,12.65
2023-02-27T03:10:22.814Z,13.94
2023-02-27T03:11:46.182Z,12.11
2023-02-27T03:13:11.400Z,10.43
2023-02-27T03:14:36.660Z,9.97
2023-02-27T03:16:02.090Z,8.16
2023-02-27T03:19:05.722Z,7.85
2023-02-27T03:20:37.111Z,7.58
2023-02-27T03:35:14.902Z,16.88
2023-02-27T03:36:46.604Z,13.49
2023-02-27T03:38:18.041Z,10.68
2023-02-27T03:39:43.356Z,8.72
2023-02-27T03:41:16.796Z,8.29
2023-02-27T03:46:05.075Z,5.82
2023-02-27T03:47:30.470Z,8.08
2023-02-27T03:48:51.838Z,7.84
2023-02-27T03:50:13.939Z,8.29
2023-02-27T03:51:35.314Z,9.08
2023-02-27T03:52:56.978Z,10.55
2023-02-27T03:54:24.407Z,9.53
2023-02-27T03:55:45.442Z,10.97
2023-02-27T03:57:09.088Z,9.97
2023-02-27T03:58:30.762Z,11.32
2023-02-27T03:59:52.010Z,10.57
2023-02-27T04:01:15.754Z,11.88
2023-02-27T04:02:37.468Z,14.31
2023-02-27T04:16:22.373Z,15.22
2023-02-27T04:19:43.991Z,20.74
2023-02-27T04:21:26.413Z,20.95
2023-02-27T04:22:51.427Z,17.06
2023-02-27T04:24:22.588Z,17.21
2023-02-27T04:27:37.569Z,14.00
2023-02-27T04:29:10.129Z,14.11
2023-02-27T04:32:19.580Z,14.12
2023-02-27T04:34:04.990Z,14.17
2023-02-27T04:55:11.381Z,6.40
2023-02-27T04:58:20.285Z,6.00
2023-02-27T04:59:44.803Z,9.66
2023-02-27T05:01:24.230Z,7.77
2023-02-27T05:02:49.525Z,8.96
2023-02-27T05:04:12.716Z,9.18
2023-02-27T05:05:44.214Z,9.64
2023-02-27T05:07:12.028Z,8.98
2023-02-27T05:08:41.200Z,9.88
2023-02-27T05:10:06.099Z,11.01
2023-02-27T05:11:31.613Z,9.52
2023-02-27T05:13:26.812Z,9.05
2023-02-27T05:15:03.857Z,7.76
2023-02-27T05:16:38.125Z,8.78
2023-02-27T05:18:09.776Z,7.74
2023-02-27T05:19:35.007Z,8.28
2023-02-27T05:31:26.726Z,9.67
2023-02-27T05:33:23.551Z,10.01
2023-02-27T05:40:24.209Z,12.04
2023-02-27T05:47:26.645Z,8.09
2023-02-27T06:12:26.490Z,11.26
2023-02-27T06:20:44.352Z,16.02
2023-02-27T07:31:49.961Z,33.19
2023-02-27T07:33:22.427Z,22.43
2023-02-27T07:34:45.852Z,24.21
2023-02-27T07:37:49.726Z,40.96
2023-02-27T07:39:14.444Z,36.19
2023-02-27T07:40:38.036Z,27.71
2023-02-27T07:42:01.447Z,21.51
2023-02-27T07:43:23.456Z,28.24
2023-02-27T07:44:46.584Z,23.98
2023-02-27T07:46:10.580Z,30.29
2023-02-27T07:47:32.161Z,26.01
2023-02-27T07:48:54.674Z,25.86
2023-02-27T07:50:19.393Z,22.62
2023-02-27T07:51:40.486Z,31.07
2023-02-27T07:53:01.739Z,23.66
2023-02-27T07:54:23.392Z,24.75
2023-02-27T07:55:45.840Z,31.59
2023-02-27T07:57:07.581Z,33.31
2023-02-27T07:58:28.919Z,29.42
2023-02-27T07:59:50.277Z,32.13
2023-02-27T08:01:11.549Z,24.79
2023-02-27T08:02:34.384Z,26.57
2023-02-27T08:03:56.280Z,25.23
2023-02-27T08:05:29.047Z,32.99
2023-02-27T08:06:50.408Z,34.52
2023-02-27T08:08:12.586Z,32.86
2023-02-27T08:09:38.243Z,33.59
2023-02-27T08:11:15.553Z,38.21
2023-02-27T08:12:37.604Z,39.87
2023-02-27T08:14:01.309Z,26.64
2023-02-27T08:15:22.763Z,26.63
2023-02-27T08:16:45.088Z,24.68
2023-02-27T08:18:08.242Z,22.53
2023-02-27T08:19:29.833Z,20.27
2023-02-27T08:20:57.982Z,21.54
2023-02-27T08:22:20.026Z,17.84
2023-02-27T12:33:03.132Z,13.19
2023-02-27T12:34:26.766Z,12.96
2023-02-27T12:35:52.160Z,9.31
2023-02-27T12:37:24.806Z,12.70
2023-02-27T12:38:46.146Z,13.94
2023-02-27T12:40:11.694Z,12.98
2023-02-27T12:41:36.631Z,11.31
2023-02-27T12:43:01.682Z,8.00
2023-02-27T12:44:46.187Z,9.32
2023-02-27T12:46:11.564Z,10.73
2023-02-27T12:47:37.845Z,11.69
2023-02-27T12:49:19.030Z,12.26
2023-02-27T12:50:52.898Z,13.01
2023-02-27T12:53:44.148Z,11.96
2023-02-27T12:56:21.280Z,13.59
2023-02-27T12:58:08.778Z,13.96
2023-02-27T12:59:51.873Z,14.07
2023-02-27T13:01:33.017Z,13.54
2023-02-27T13:03:03.896Z,14.86
2023-02-27T13:04:39.537Z,12.49
2023-02-27T13:06:13.663Z,13.84
2023-02-27T13:07:38.196Z,14.98
2023-02-27T13:09:03.498Z,14.27
2023-02-27T13:10:46.403Z,15.53
2023-02-27T13:12:15.488Z,12.02
2023-02-27T13:13:40.888Z,10.08
2023-02-27T13:15:07.958Z,10.04
2023-02-27T13:42:02.937Z,13.08
2023-02-27T13:43:51.156Z,14.84
2023-02-27T13:45:05.791Z,13.59
2023-02-27T13:46:30.958Z,14.85
2023-02-27T13:47:52.968Z,17.43
2023-02-27T13:49:28.862Z,14.06
2023-02-27T13:50:48.933Z,15.32
2023-02-27T13:52:10.255Z,15.78
2023-02-27T13:53:31.952Z,15.93
2023-02-27T13:54:57.255Z,16.31
2023-02-27T13:56:21.158Z,14.26
2023-02-27T13:57:43.075Z,11.67
2023-02-27T13:59:20.472Z,13.72
2023-02-27T14:00:43.075Z,15.49
2023-02-27T14:02:12.079Z,13.85
2023-02-27T14:03:34.744Z,17.97
2023-02-27T14:04:56.530Z,15.71
2023-02-27T14:08:06.867Z,16.66
2023-02-27T14:09:32.260Z,11.57
2023-02-27T14:11:19.543Z,16.15
2023-02-27T14:12:45.686Z,12.94
2023-02-27T14:14:09.525Z,13.66
2023-02-27T14:15:34.818Z,12.73
2023-02-27T14:17:00.224Z,14.14
2023-02-27T14:18:45.068Z,11.64
2023-02-27T14:20:18.386Z,11.87
2023-02-27T14:21:53.941Z,18.66
2023-02-27T14:23:19.861Z,13.52
2023-02-27T14:43:45.565Z,14.57
2023-02-27T14:45:24.446Z,22.63
2023-02-27T14:46:46.623Z,16.83
2023-02-27T14:48:11.180Z,13.53
2023-02-27T14:51:45.524Z,14.15
2023-02-27T14:53:12.354Z,18.61
2023-02-27T14:54:34.632Z,16.52
2023-02-27T14:55:57.528Z,11.07
2023-02-27T14:59:31.547Z,11.60
2023-02-27T15:01:01.070Z,13.69
2023-02-27T15:02:39.149Z,17.42
2023-02-27T15:04:00.725Z,13.68
2023-02-27T15:05:27.475Z,17.37
2023-02-27T15:06:50.250Z,18.82
2023-02-27T15:09:44.101Z,14.54
2023-02-27T15:11:08.053Z,13.42
2023-02-27T15:12:30.792Z,11.06
2023-02-27T15:15:09.914Z,13.01
2023-02-27T15:16:39.310Z,10.17
2023-02-27T15:18:01.500Z,9.18
2023-02-27T15:19:24.914Z,9.98
2023-02-27T15:20:46.534Z,10.73
2023-02-27T15:22:18.025Z,10.32
2023-02-27T15:23:39.749Z,11.49
2023-02-27T15:25:01.488Z,12.06
2023-02-27T15:26:24.470Z,10.99
2023-02-27T15:27:45.654Z,9.14
2023-02-27T15:29:07.679Z,7.92
2023-02-27T15:30:29.564Z,7.01
2023-02-27T15:31:51.622Z,11.39
2023-02-27T15:33:14.205Z,10.55
2023-02-27T15:38:26.721Z,7.23
2023-02-27T15:39:49.762Z,10.81
2023-02-27T15:41:11.872Z,8.63
2023-02-27T15:42:33.789Z,9.49
2023-02-27T15:43:55.653Z,9.53
2023-02-27T15:45:19.034Z,9.41
2023-02-27T15:46:40.598Z,9.11
2023-02-27T15:48:02.869Z,9.97
2023-02-27T15:49:25.775Z,9.27
2023-02-27T15:50:48.879Z,13.57
2023-02-27T15:52:22.203Z,12.64
2023-02-27T15:53:49.003Z,16.06
2023-02-27T15:55:15.007Z,11.74
2023-02-27T15:56:38.669Z,12.83
2023-02-27T15:58:03.887Z,14.73
2023-02-27T15:59:28.654Z,16.01
2023-02-27T16:14:52.047Z,9.09
2023-02-27T16:16:30.191Z,8.16
2023-02-27T16:17:58.533Z,9.78
2023-02-27T16:19:28.614Z,9.06
2023-02-27T16:20:51.582Z,7.93
2023-02-27T16:23:37.905Z,7.95
2023-02-27T16:25:09.174Z,8.42
2023-02-27T16:26:34.127Z,8.57
2023-02-27T16:27:55.533Z,8.34
2023-02-27T16:29:24.794Z,8.44
2023-02-27T16:30:50.323Z,7.33
2023-02-27T16:32:22.126Z,8.16
2023-02-27T16:33:43.498Z,6.89
2023-02-27T16:35:16.891Z,7.66
2023-02-27T16:36:40.150Z,8.30
2023-02-27T16:38:03.386Z,7.54
2023-02-27T16:39:24.665Z,7.89
2023-02-27T16:40:46.246Z,8.77
2023-02-27T16:42:08.326Z,8.24
2023-02-27T16:43:29.564Z,8.82
2023-02-27T16:44:52.019Z,8.98
2023-02-27T16:46:16.838Z,7.89
2023-02-27T16:47:38.517Z,7.33
2023-02-27T16:49:04.460Z,9.06
2023-02-27T16:50:29.473Z,7.29
2023-02-27T16:51:50.895Z,8.12
2023-02-27T16:53:12.585Z,8.28
2023-02-27T16:54:33.994Z,8.56
2023-02-27T16:55:55.458Z,7.85
2023-02-27T16:57:16.714Z,9.75
2023-02-27T16:58:38.444Z,8.89
2023-02-27T17:00:04.687Z,8.12
2023-02-27T17:01:29.493Z,8.31
2023-02-27T17:02:51.078Z,8.52
2023-02-27T17:04:25.273Z,8.88
2023-02-27T17:05:37.564Z,9.42
2023-02-27T17:07:00.593Z,9.50
2023-02-27T17:08:21.765Z,10.56
2023-02-27T17:10:58.971Z,10.83
2023-02-27T17:12:20.492Z,10.49
2023-02-27T17:13:41.750Z,9.92
2023-02-27T17:15:04.194Z,10.98
2023-02-27T17:16:26.477Z,10.42
2023-02-27T17:17:48.478Z,13.20
2023-02-27T17:19:10.366Z,10.62
2023-02-27T17:20:31.792Z,9.43
2023-02-27T17:21:53.215Z,12.98
2023-02-27T17:23:15.122Z,13.46
2023-02-27T17:24:37.057Z,12.27
2023-02-27T17:25:58.287Z,12.64
2023-02-27T17:27:21.358Z,10.91
2023-02-27T17:28:42.826Z,9.93
2023-02-27T17:30:06.480Z,10.17
2023-02-27T17:31:27.911Z,13.09
2023-02-27T17:32:52.573Z,11.82
2023-02-27T17:34:14.689Z,11.73
2023-02-27T17:35:37.400Z,12.96
2023-02-27T17:37:02.468Z,12.81
2023-02-27T17:38:24.203Z,12.37
2023-02-27T17:39:45.753Z,15.62
2023-02-27T17:41:08.714Z,13.63
2023-02-27T17:42:32.083Z,12.56
2023-02-27T17:43:54.518Z,11.98
2023-02-27T17:45:16.653Z,13.32
2023-02-27T17:46:38.614Z,8.58
2023-02-27T17:48:02.163Z,9.48
2023-02-27T17:49:24.033Z,7.85
2023-02-27T17:50:46.986Z,8.22
2023-02-27T17:52:08.953Z,8.73
2023-02-27T17:53:30.176Z,8.35
2023-02-27T17:54:52.584Z,8.29
2023-02-27T17:56:16.523Z,10.98
2023-02-27T17:57:39.482Z,9.94
2023-02-27T18:00:24.555Z,8.93
2023-02-27T18:01:46.298Z,8.10
2023-02-27T18:03:07.977Z,8.93
2023-02-27T18:04:30.574Z,7.98
2023-02-27T18:05:52.706Z,8.10
2023-02-27T18:07:15.116Z,6.78
2023-02-27T18:08:37.156Z,7.39
2023-02-27T18:10:00.912Z,8.12
2023-02-27T18:11:22.778Z,6.42
2023-02-27T18:12:45.044Z,7.62
2023-02-27T18:14:06.725Z,6.77
2023-02-27T18:15:30.204Z,8.07
2023-02-27T18:16:52.438Z,8.48
2023-02-27T18:18:14.533Z,9.79
2023-02-27T18:21:04.653Z,8.75
2023-02-27T18:22:27.136Z,9.28
2023-02-27T18:23:49.144Z,9.44
2023-02-27T18:25:10.751Z,8.37
2023-02-27T18:26:33.286Z,7.86
2023-02-27T18:27:55.649Z,10.26
2023-02-27T18:29:18.634Z,9.76
2023-02-27T18:30:41.114Z,7.61
2023-02-27T18:32:03.598Z,8.36
2023-02-27T18:33:26.416Z,8.19
2023-02-27T18:34:48.352Z,8.19
2023-02-27T18:36:10.518Z,8.21
2023-02-27T18:37:33.017Z,8.07
2023-02-27T18:38:55.033Z,8.64
2023-02-27T18:41:39.887Z,9.33
2023-02-27T18:43:01.792Z,10.18
2023-02-27T18:44:24.284Z,9.76
2023-02-27T18:45:46.059Z,9.18
2023-02-27T18:47:09.125Z,7.88
2023-02-27T18:48:32.480Z,9.39
2023-02-27T18:49:54.981Z,9.25
2023-02-27T18:51:16.651Z,6.92
2023-02-27T18:52:38.233Z,7.65
2023-02-27T18:54:00.238Z,9.11
2023-02-27T18:55:22.805Z,9.61
2023-02-27T18:56:44.816Z,9.90
2023-02-27T18:58:06.860Z,10.62
2023-02-27T18:59:29.549Z,11.89
2023-02-27T19:00:51.992Z,11.48
2023-02-27T19:02:15.570Z,12.13
2023-02-27T19:03:37.305Z,14.86
2023-02-27T19:05:00.735Z,13.84
2023-02-27T19:06:22.903Z,17.01
2023-02-27T19:07:44.672Z,16.69
2023-02-27T19:09:06.472Z,21.03
2023-02-27T19:10:28.706Z,18.76
2023-02-27T19:11:51.472Z,14.29
2023-02-27T19:13:14.718Z,17.92
2023-02-27T19:16:30.650Z,16.92
2023-02-27T19:19:17.061Z,17.25
2023-02-27T19:20:39.594Z,15.20
2023-02-27T19:22:01.252Z,17.42
2023-02-27T19:23:23.497Z,13.96
2023-02-27T19:24:45.285Z,16.46
2023-02-27T19:26:07.497Z,13.22
2023-02-27T19:27:29.579Z,12.03
2023-02-27T19:41:09.013Z,15.29
2023-02-27T19:43:47.527Z,18.86
2023-02-27T19:45:10.434Z,15.96
2023-02-27T19:46:33.762Z,15.84
2023-02-27T19:47:57.051Z,13.19
2023-02-27T19:49:20.720Z,14.27
2023-02-27T19:50:43.002Z,13.37
2023-02-27T19:52:05.272Z,13.92
2023-02-27T19:53:27.169Z,15.59
2023-02-27T19:54:49.376Z,13.28
2023-02-27T19:57:46.845Z,12.86
2023-02-27T19:59:15.287Z,13.64
2023-02-27T20:00:37.577Z,13.62
2023-02-27T20:02:00.357Z,15.59
2023-02-27T20:03:29.321Z,15.77
2023-02-27T20:04:51.918Z,14.84
2023-02-27T20:06:20.208Z,14.90
2023-02-27T20:07:42.168Z,14.88
2023-02-27T20:09:11.798Z,13.83
2023-02-27T20:10:33.681Z,11.71
2023-02-27T20:11:55.260Z,12.15
2023-02-27T20:13:16.840Z,11.16
2023-02-27T20:14:53.399Z,10.36
2023-02-27T20:16:16.982Z,11.42
2023-02-27T20:17:39.641Z,11.52
2023-02-27T20:20:42.827Z,11.86
2023-02-27T20:22:18.327Z,8.91
2023-02-27T20:23:42.562Z,8.92
2023-02-27T20:25:04.978Z,10.42
2023-02-27T20:26:36.099Z,10.21
2023-02-27T20:27:58.251Z,10.28
2023-02-27T20:29:21.747Z,11.96
2023-02-27T20:30:50.850Z,10.68
2023-02-27T20:32:19.648Z,10.90
2023-02-27T20:33:41.621Z,10.63
2023-02-27T20:35:03.544Z,11.38
2023-02-27T20:36:32.493Z,10.64
2023-02-27T20:37:54.519Z,11.62
2023-02-27T20:39:17.121Z,10.21
2023-02-27T20:40:38.699Z,10.10
2023-02-27T20:42:01.160Z,9.26
2023-02-27T20:43:22.778Z,10.30
2023-02-27T20:44:45.438Z,10.59
2023-02-27T20:46:09.526Z,12.23
2023-02-27T20:47:31.171Z,10.99
2023-02-27T21:01:00.994Z,11.32
2023-02-27T21:14:34.379Z,17.74
2023-02-27T21:18:17.693Z,12.85
2023-02-27T21:19:40.317Z,19.70
2023-02-27T21:21:03.185Z,16.23
2023-02-27T21:22:29.129Z,13.27
2023-02-27T21:23:51.726Z,13.17
2023-02-27T21:25:13.217Z,15.14
2023-02-27T21:26:38.486Z,12.73
2023-02-27T21:28:00.905Z,10.17
2023-02-27T21:29:23.839Z,7.91
2023-02-27T21:30:46.648Z,10.19
2023-02-27T21:32:10.222Z,9.79
2023-02-27T21:33:32.869Z,12.02
2023-02-27T21:34:54.830Z,9.91
2023-02-27T21:36:18.397Z,8.88
2023-02-27T21:37:41.008Z,10.90
2023-02-27T21:39:06.962Z,9.79
2023-02-27T21:40:29.167Z,12.52
2023-02-27T21:41:51.175Z,10.12
2023-02-27T21:43:12.743Z,12.48
2023-02-27T21:44:36.158Z,12.50
2023-02-27T21:45:57.295Z,12.34
2023-02-27T21:47:18.843Z,13.19
2023-02-27T21:48:41.058Z,12.92
2023-02-27T21:50:02.441Z,11.67
2023-02-27T21:51:38.790Z,10.99
2023-02-27T21:52:48.712Z,10.54
2023-02-27T21:54:10.626Z,11.34
2023-02-27T21:55:33.637Z,11.94
2023-02-27T21:56:57.188Z,11.78
2023-02-27T21:58:18.786Z,10.63
2023-02-27T21:59:40.903Z,9.44
2023-02-27T22:01:05.693Z,10.72
2023-02-27T22:02:27.732Z,9.32
2023-02-27T22:03:51.994Z,9.63
2023-02-27T22:05:13.577Z,9.74
2023-02-27T22:06:35.349Z,8.51
2023-02-27T22:07:58.086Z,11.29
2023-02-27T22:09:20.918Z,11.11
2023-02-27T22:10:42.831Z,12.67
2023-02-27T22:12:06.495Z,12.20
2023-02-27T22:13:28.087Z,13.73
2023-02-27T22:14:50.210Z,12.06
2023-02-27T22:16:11.697Z,11.30
2023-02-27T22:17:33.372Z,11.28
2023-02-27T22:18:55.563Z,11.24
2023-02-27T22:20:17.480Z,12.70
2023-02-27T22:21:39.152Z,12.14
2023-02-27T22:23:01.169Z,10.34
2023-02-27T22:24:22.970Z,14.58
2023-02-27T22:25:44.980Z,13.03
2023-02-27T22:27:09.775Z,16.91
2023-02-27T22:28:32.319Z,24.88
2023-02-27T22:29:54.501Z,12.45
2023-02-27T22:31:19.799Z,14.28
2023-02-27T22:32:42.426Z,13.33
2023-02-27T22:46:08.340Z,15.81
2023-02-27T22:48:44.003Z,16.36
2023-02-27T22:50:06.697Z,17.32
2023-02-27T22:51:29.247Z,17.04
2023-02-27T22:52:52.936Z,15.67
2023-02-27T22:54:15.469Z,15.86
2023-02-27T22:55:37.216Z,16.01
2023-02-27T22:56:58.771Z,15.55
2023-02-27T22:58:22.054Z,18.06
2023-02-27T22:59:43.897Z,17.28
2023-02-27T23:01:20.923Z,14.55
2023-02-27T23:02:43.361Z,17.04
2023-02-27T23:04:08.600Z,16.56
2023-02-27T23:05:32.271Z,13.98
2023-02-27T23:06:54.696Z,14.30
2023-02-27T23:08:16.931Z,12.92
2023-02-27T23:09:38.576Z,12.36
2023-02-27T23:11:00.156Z,13.28
2023-02-27T23:12:27.436Z,13.76
2023-02-27T23:13:49.777Z,14.62
2023-02-27T23:15:13.794Z,10.68
2023-02-27T23:16:35.111Z,14.16
2023-02-27T23:17:58.638Z,14.40
2023-02-27T23:19:21.184Z,14.34
2023-02-27T23:20:42.756Z,15.24
2023-02-27T23:22:05.927Z,10.87
2023-02-27T23:23:28.094Z,9.26
2023-02-27T23:24:50.135Z,10.54
2023-02-27T23:26:12.720Z,8.80
2023-02-27T23:27:34.850Z,8.87
2023-02-27T23:28:57.693Z,9.14
2023-02-27T23:30:20.394Z,7.68
2023-02-27T23:31:42.112Z,9.10
2023-02-27T23:33:03.651Z,7.41
2023-02-27T23:34:25.458Z,7.77
2023-02-27T23:35:47.305Z,8.49
2023-02-27T23:37:09.593Z,8.42
2023-02-27T23:38:31.387Z,5.51
2023-02-27T23:39:54.845Z,6.64
2023-02-27T23:41:16.628Z,6.52
2023-02-27T23:42:38.966Z,8.64
2023-02-27T23:44:00.463Z,7.61
2023-02-27T23:45:22.825Z,8.55
2023-02-27T23:46:45.149Z,7.28
2023-02-27T23:48:07.538Z,8.79
2023-02-27T23:49:29.294Z,8.67
2023-02-27T23:50:50.843Z,8.63
2023-02-27T23:52:12.271Z,8.17
2023-02-27T23:53:34.963Z,7.96
2023-02-27T23:54:59.738Z,8.81
2023-02-27T23:56:23.716Z,8.63
2023-02-27T23:57:45.874Z,8.36
2023-02-27T23:59:07.902Z,8.68
